Time;durP1;ratioP1;P1;durP2;ratioP2;P2;SDS_P1;SDS_P2;PMS_P1;PMS_P2;Temp;Humidity;BMP_temperature;BMP_pressure;BME280_temperature;BME280_humidity;BME280_pressure;Samples;Min_cycle;Max_cycle;Signal;HPM_P1;HPM_P2
2022/01/17 00:00:12;;;;;;;14.80;1.45;;;;;;;4.89;84.77;102517.16;2114181;28;44369;-86
2022/01/17 00:01:18;;;;;;;18.30;2.00;;;;;;;4.89;84.69;102512.72;2114695;28;35773;-85
2022/01/17 00:02:22;;;;;;;22.20;3.42;;;;;;;4.88;84.93;102510.94;2113620;28;44192;-85
2022/01/17 00:03:25;;;;;;;24.70;2.67;;;;;;;4.88;84.71;102507.38;2114283;28;42539;-85
2022/01/17 00:04:31;;;;;;;13.80;1.50;;;;;;;4.87;84.53;102503.84;2114199;28;43068;-85
2022/01/17 00:05:32;;;;;;;16.75;1.40;;;;;;;4.84;84.98;102503.75;2114713;28;44505;-85
2022/01/17 00:06:34;;;;;;;15.65;1.95;;;;;;;4.85;84.67;102521.47;2115141;28;32564;-86
2022/01/17 00:07:37;;;;;;;15.93;1.30;;;;;;;4.84;85.02;102524.97;2113897;28;46323;-86
2022/01/17 00:08:42;;;;;;;21.88;1.75;;;;;;;4.83;84.57;102523.19;2114911;28;42110;-85
2022/01/17 00:09:43;;;;;;;18.95;2.97;;;;;;;4.83;84.18;102525.84;2117821;28;42047;-86
2022/01/17 00:10:46;;;;;;;16.88;1.83;;;;;;;4.84;85.09;102522.31;2116966;28;44581;-86
2022/01/17 00:11:49;;;;;;;19.63;2.05;;;;;;;4.86;84.26;102525.03;2116846;28;44361;-85
2022/01/17 00:12:53;;;;;;;19.20;1.33;;;;;;;4.85;85.14;102529.44;2116501;28;44308;-86
2022/01/17 00:13:56;;;;;;;17.20;1.98;;;;;;;4.84;84.16;102524.97;2115479;28;42107;-86
2022/01/17 00:14:58;;;;;;;13.48;1.90;;;;;;;4.85;84.21;102529.44;2105581;28;43831;-85
2022/01/17 00:16:25;;;;;;;22.10;1.60;;;;;;;4.86;83.66;102519.72;2105213;28;46407;-85
2022/01/17 00:17:37;;;;;;;16.27;1.75;;;;;;;4.85;84.87;102513.53;2114136;28;42571;-85
2022/01/17 00:19:52;;;;;;;19.10;1.73;;;;;;;4.87;83.76;102509.16;2114076;28;47409;-85
2022/01/17 00:20:56;;;;;;;17.70;1.52;;;;;;;4.85;84.11;102505.56;2113942;28;44197;-85
2022/01/17 00:21:58;;;;;;;15.13;1.75;;;;;;;4.84;84.02;102513.47;2114386;28;44682;-85
2022/01/17 00:23:00;;;;;;;14.57;1.27;;;;;;;4.82;83.81;102497.50;2114677;28;20040;-86
2022/01/17 00:24:01;;;;;;;20.85;1.38;;;;;;;4.81;84.77;102497.47;2114103;28;45769;-85
2022/01/17 00:25:04;;;;;;;11.43;1.67;;;;;;;4.80;83.78;102512.50;2114047;28;43554;-85
2022/01/17 00:26:06;;;;;;;14.95;1.55;;;;;;;4.81;83.97;102501.03;2114129;28;29164;-85
2022/01/17 00:27:08;;;;;;;13.23;1.67;;;;;;;4.81;84.72;102509.00;2114266;28;45479;-86
2022/01/17 00:28:10;;;;;;;16.75;1.60;;;;;;;4.84;83.73;102524.09;2113889;28;42479;-85
2022/01/17 00:29:11;;;;;;;15.88;1.63;;;;;;;4.83;84.12;102524.94;2113786;28;44275;-86
2022/01/17 00:30:36;;;;;;;14.77;1.30;;;;;;;4.81;84.08;102521.34;2090415;28;20571;-75
2022/01/17 00:31:38;;;;;;;21.13;1.45;;;;;;;4.80;84.35;102522.22;2088785;28;42771;-75
2022/01/17 00:32:40;;;;;;;10.55;1.35;;;;;;;4.78;84.34;102512.44;2079506;28;44236;-74
2022/01/17 00:33:42;;;;;;;23.52;1.88;;;;;;;4.78;83.36;102508.91;2079976;28;43727;-75
2022/01/17 00:34:44;;;;;;;20.90;1.70;;;;;;;4.78;84.49;102520.41;2088418;28;34504;-75
2022/01/17 00:35:46;;;;;;;16.25;1.80;;;;;;;4.79;84.09;102518.66;2088393;28;45617;-75
2022/01/17 00:36:47;;;;;;;25.73;1.83;;;;;;;4.80;83.75;102523.13;2088937;28;45233;-75
2022/01/17 00:37:49;;;;;;;21.02;1.65;;;;;;;4.80;83.46;102528.41;2088469;28;45311;-75
2022/01/17 00:38:51;;;;;;;19.42;1.52;;;;;;;4.82;84.31;102532.00;2088910;28;42152;-75
2022/01/17 00:39:52;;;;;;;19.27;1.77;;;;;;;4.83;83.52;102524.94;2088889;28;39642;-75
2022/01/17 00:40:54;;;;;;;11.68;1.48;;;;;;;4.83;83.33;102531.16;2079395;28;44944;-75
2022/01/17 00:41:56;;;;;;;18.00;1.80;;;;;;;4.83;83.26;102516.97;2079460;28;44821;-75
2022/01/17 00:42:58;;;;;;;15.32;1.67;;;;;;;4.82;83.61;102521.38;2080075;28;45437;-75
2022/01/17 00:43:59;;;;;;;20.00;1.83;;;;;;;4.81;83.65;102514.31;2079654;28;45924;-75
2022/01/17 00:45:05;;;;;;;18.60;1.80;;;;;;;4.81;83.62;102518.69;2079444;28;45744;-75
2022/01/17 00:46:09;;;;;;;18.23;1.48;;;;;;;4.83;83.47;102509.00;2072460;28;44984;-74
2022/01/17 00:47:13;;;;;;;14.07;1.85;;;;;;;4.84;83.59;102509.06;2082224;28;20159;-75
2022/01/17 00:48:15;;;;;;;18.30;1.65;;;;;;;4.83;83.54;102511.66;2088451;28;36199;-74
2022/01/17 00:49:19;;;;;;;15.73;1.42;;;;;;;4.82;84.25;102516.09;2079840;28;45732;-74
2022/01/17 00:50:23;;;;;;;21.35;1.75;;;;;;;4.84;84.01;102524.09;2071810;28;45377;-75
2022/01/17 00:51:27;;;;;;;18.15;1.70;;;;;;;4.82;83.44;102529.34;2072002;28;42879;-74
2022/01/17 00:52:29;;;;;;;16.70;1.30;;;;;;;4.85;82.80;102523.25;2079455;28;43476;-75
2022/01/17 00:53:36;;;;;;;16.10;1.25;;;;;;;4.84;83.93;102530.28;2080001;28;29915;-75
2022/01/17 00:54:38;;;;;;;16.40;1.67;;;;;;;4.84;83.22;102521.44;2088663;28;45554;-74
2022/01/17 00:55:40;;;;;;;16.00;1.40;;;;;;;4.85;83.27;102531.22;2079592;28;45479;-75
2022/01/17 00:56:42;;;;;;;20.77;2.13;;;;;;;4.85;82.96;102532.09;2079795;28;46077;-74
2022/01/17 00:57:44;;;;;;;18.50;1.70;;;;;;;4.83;83.08;102528.50;2088453;28;43542;-75
2022/01/17 00:58:45;;;;;;;14.95;1.45;;;;;;;4.83;83.32;102523.19;2079390;28;45018;-74
2022/01/17 00:59:47;;;;;;;17.23;2.15;;;;;;;4.84;82.98;102514.38;2071826;28;44717;-75
2022/01/17 01:00:51;;;;;;;19.65;1.40;;;;;;;4.83;83.16;102523.19;2074000;28;44122;-75
2022/01/17 01:01:53;;;;;;;21.70;2.75;;;;;;;4.87;82.95;102526.84;2089550;28;44319;-75
2022/01/17 01:02:55;;;;;;;16.75;1.70;;;;;;;4.87;82.99;102513.56;2088291;28;45824;-75
2022/01/17 01:03:58;;;;;;;16.25;1.77;;;;;;;4.87;82.80;102519.75;2088641;28;44102;-75
2022/01/17 01:05:00;;;;;;;16.15;1.77;;;;;;;4.89;82.88;102525.13;2088689;28;31301;-75
2022/01/17 01:06:03;;;;;;;16.10;1.90;;;;;;;4.90;82.70;102519.84;2089511;28;21009;-75
2022/01/17 01:07:07;;;;;;;17.17;1.73;;;;;;;4.90;82.49;102525.16;2088347;28;43850;-75
2022/01/17 01:08:08;;;;;;;10.82;1.02;;;;;;;4.90;83.88;102522.50;2088461;28;45775;-75
2022/01/17 01:09:12;;;;;;;17.40;1.98;;;;;;;4.88;82.95;102518.91;2087910;28;45643;-75
2022/01/17 01:10:15;;;;;;;20.45;1.65;;;;;;;4.87;82.66;102519.75;2089017;28;30866;-75
2022/01/17 01:11:16;;;;;;;13.90;1.52;;;;;;;4.87;83.33;102514.44;2087986;28;42332;-75
2022/01/17 01:12:18;;;;;;;21.90;1.95;;;;;;;4.87;83.57;102517.09;2088483;28;44044;-75
2022/01/17 01:13:23;;;;;;;14.32;1.58;;;;;;;4.90;82.60;102518.94;2088469;28;34121;-75
2022/01/17 01:14:30;;;;;;;23.60;2.10;;;;;;;4.87;83.37;102519.75;2088311;28;45369;-75
2022/01/17 01:16:42;;;;;;;20.25;1.60;;;;;;;4.89;82.65;102515.38;2079164;28;42504;-75
2022/01/17 01:17:53;;;;;;;15.95;1.35;;;;;;;4.89;82.75;102518.03;2079714;28;45821;-75
2022/01/17 01:20:55;;;;;;;18.85;1.42;;;;;;;4.89;82.91;102523.34;2081899;28;45330;-75
2022/01/17 01:28:35;;;;;;;25.05;1.85;;;;;;;4.91;82.04;102516.31;2074595;28;44281;-75
2022/01/17 01:29:45;;;;;;;18.35;1.65;;;;;;;4.89;83.16;102512.72;2087857;28;44615;-73
2022/01/17 01:30:51;;;;;;;26.13;1.67;;;;;;;4.88;83.61;102518.91;2088435;28;45541;-75
2022/01/17 01:31:58;;;;;;;16.65;1.80;;;;;;;4.89;83.13;102522.47;2088411;28;44138;-75
2022/01/17 01:33:00;;;;;;;17.27;1.67;;;;;;;4.89;82.90;102518.03;2079450;28;42592;-75
2022/01/17 01:34:04;;;;;;;17.33;1.52;;;;;;;4.94;82.96;102516.41;2080484;28;44834;-75
2022/01/17 01:35:10;;;;;;;17.58;1.83;;;;;;;4.94;82.38;102523.47;2089191;28;20232;-75
2022/01/17 01:36:17;;;;;;;22.30;1.73;;;;;;;4.93;82.62;102516.38;2071259;28;31498;-74
2022/01/17 01:37:19;;;;;;;15.57;1.95;;;;;;;4.92;82.77;102523.44;2073703;28;44343;-74
2022/01/17 01:38:22;;;;;;;13.18;1.17;;;;;;;4.91;82.29;102521.63;2087972;28;43461;-77
2022/01/17 01:39:24;;;;;;;14.57;1.42;;;;;;;4.91;82.53;102528.69;2088217;28;45604;-74
2022/01/17 01:40:28;;;;;;;17.83;1.70;;;;;;;4.88;82.99;102529.53;2079147;28;43234;-74
2022/01/17 01:41:39;;;;;;;17.23;1.35;;;;;;;4.89;83.13;102530.41;2071389;28;45552;-74
2022/01/17 01:42:41;;;;;;;16.35;1.60;;;;;;;4.89;82.94;102533.06;2080671;28;43953;-76
2022/01/17 01:43:43;;;;;;;21.05;1.63;;;;;;;4.87;82.90;102525.06;2088408;28;43794;-77
2022/01/17 01:44:48;;;;;;;17.67;1.65;;;;;;;4.87;82.91;102527.72;2088072;28;44615;-75
2022/01/17 01:45:57;;;;;;;13.88;1.10;;;;;;;4.88;82.60;102525.97;2088141;28;44450;-75
2022/01/17 01:46:59;;;;;;;17.17;1.75;;;;;;;4.88;82.80;102537.50;2079742;28;35755;-75
2022/01/17 01:48:01;;;;;;;19.67;1.45;;;;;;;4.89;82.98;102536.63;2063762;28;45460;-75
2022/01/17 01:49:03;;;;;;;14.70;1.48;;;;;;;4.90;82.84;102533.13;2072966;28;42123;-75
2022/01/17 01:50:06;;;;;;;20.42;1.23;;;;;;;4.91;82.55;102516.31;2079016;28;45109;-75
2022/01/17 01:51:09;;;;;;;14.93;1.38;;;;;;;4.88;82.85;102513.63;2079828;28;45112;-74
2022/01/17 01:52:11;;;;;;;16.52;1.45;;;;;;;4.88;83.29;102523.31;2089033;28;21160;-75
2022/01/17 01:53:13;;;;;;;19.85;2.13;;;;;;;4.88;83.37;102521.56;2087532;28;44462;-75
2022/01/17 01:54:16;;;;;;;13.88;1.80;;;;;;;4.88;82.96;102513.63;2087782;28;45916;-75
2022/01/17 01:55:21;;;;;;;21.20;1.67;;;;;;;4.91;82.67;102521.63;2088250;28;44273;-75
2022/01/17 01:56:22;;;;;;;14.98;1.40;;;;;;;4.91;82.45;102524.28;2088254;28;44820;-75
2022/01/17 01:57:24;;;;;;;14.52;1.08;;;;;;;4.90;83.17;102521.59;2088332;28;42135;-75
2022/01/17 01:58:27;;;;;;;22.20;1.77;;;;;;;4.90;82.59;102530.47;2087671;28;43284;-75
2022/01/17 01:59:28;;;;;;;15.02;1.45;;;;;;;4.89;83.15;102527.75;2079532;28;44381;-75
2022/01/17 02:00:31;;;;;;;16.58;1.27;;;;;;;4.87;83.50;102538.34;2080017;28;20094;-73
2022/01/17 02:01:33;;;;;;;13.48;1.25;;;;;;;4.87;83.21;102527.72;2088136;28;46515;-75
2022/01/17 02:02:36;;;;;;;14.52;1.40;;;;;;;4.85;83.84;102532.09;2079215;28;42660;-74
2022/01/17 02:03:38;;;;;;;12.35;1.02;;;;;;;4.85;82.75;102531.22;2079876;28;45576;-75
2022/01/17 02:04:41;;;;;;;16.50;1.98;;;;;;;4.86;83.62;102528.56;2088122;28;44571;-75
2022/01/17 02:05:43;;;;;;;17.90;1.83;;;;;;;4.86;84.06;102525.91;2062900;28;45483;-76
2022/01/17 02:06:46;;;;;;;19.52;2.08;;;;;;;4.85;83.87;102529.44;2064139;28;33938;-75
2022/01/17 02:07:47;;;;;;;13.05;1.73;;;;;;;4.86;83.41;102519.72;2079323;28;44203;-75
2022/01/17 02:08:49;;;;;;;16.67;1.52;;;;;;;4.85;83.95;102513.53;2079475;28;43488;-75
2022/01/17 02:09:51;;;;;;;17.95;1.50;;;;;;;4.87;84.32;102519.75;2079127;28;43395;-75
2022/01/17 02:10:53;;;;;;;12.32;1.40;;;;;;;4.86;83.80;102512.66;2079892;28;43743;-75
2022/01/17 02:11:54;;;;;;;18.75;2.10;;;;;;;4.86;84.28;102517.94;2088133;28;45552;-75
2022/01/17 02:12:56;;;;;;;19.13;1.38;;;;;;;4.84;83.12;102508.16;2087763;28;45753;-76
2022/01/17 02:13:58;;;;;;;18.83;1.92;;;;;;;4.83;83.88;102515.25;2087980;28;45501;-75
2022/01/17 02:15:00;;;;;;;24.85;1.70;;;;;;;4.81;84.00;102513.38;2088075;28;43119;-75
2022/01/17 02:16:04;;;;;;;15.07;1.80;;;;;;;4.77;84.12;102512.41;2079248;28;42389;-75
2022/01/17 02:17:06;;;;;;;13.85;1.45;;;;;;;4.77;84.01;102505.38;2071288;28;43538;-75
2022/01/17 02:18:08;;;;;;;21.13;2.05;;;;;;;4.75;84.37;102499.09;2079843;28;44671;-75
2022/01/17 02:19:12;;;;;;;22.00;1.52;;;;;;;4.77;84.66;102500.06;2087849;28;45325;-75
2022/01/17 02:20:21;;;;;;;18.65;1.33;;;;;;;4.77;84.23;102501.78;2079194;28;44810;-75
2022/01/17 02:21:44;;;;;;;17.73;1.40;;;;;;;4.75;84.71;102498.22;2072475;28;42261;-75
2022/01/17 02:22:49;;;;;;;17.52;1.70;;;;;;;4.77;84.82;102494.75;2074481;28;45581;-75
2022/01/17 02:23:52;;;;;;;16.30;1.88;;;;;;;4.75;84.19;102490.25;2074152;28;44635;-76
2022/01/17 02:24:55;;;;;;;16.40;1.60;;;;;;;4.77;84.38;102501.78;2071683;28;45549;-75
2022/01/17 02:25:59;;;;;;;18.45;1.63;;;;;;;4.77;84.26;102496.47;2078944;28;46732;-75
2022/01/17 02:27:01;;;;;;;17.60;1.55;;;;;;;4.76;84.15;102494.72;2087875;28;42357;-75
2022/01/17 02:28:03;;;;;;;16.50;1.80;;;;;;;4.79;84.40;102481.50;2087691;28;44443;-75
2022/01/17 02:29:06;;;;;;;16.80;1.63;;;;;;;4.78;84.54;102493.00;2079065;28;44724;-75
2022/01/17 02:30:10;;;;;;;15.55;1.23;;;;;;;4.78;83.71;102503.59;2079415;28;45008;-75
2022/01/17 02:31:12;;;;;;;14.10;1.45;;;;;;;4.78;84.34;102504.50;2088434;28;35285;-75
2022/01/17 02:32:14;;;;;;;19.13;1.58;;;;;;;4.79;84.27;102516.00;2087926;28;41833;-75
2022/01/17 02:33:16;;;;;;;21.58;1.92;;;;;;;4.83;84.03;102509.00;2088181;28;45483;-75
2022/01/17 02:34:18;;;;;;;14.50;1.40;;;;;;;4.86;83.51;102496.72;2087593;28;45990;-75
2022/01/17 02:35:22;;;;;;;15.38;1.42;;;;;;;4.86;83.56;102504.69;2088081;28;43398;-75
2022/01/17 02:36:25;;;;;;;16.58;1.52;;;;;;;4.86;83.58;102491.41;2078825;28;40358;-75
2022/01/17 02:37:26;;;;;;;15.18;1.58;;;;;;;4.85;83.86;102489.63;2079150;28;44819;-75
2022/01/17 02:38:28;;;;;;;15.95;1.27;;;;;;;4.87;83.94;102481.72;2087987;28;44080;-75
2022/01/17 02:39:30;;;;;;;15.68;1.88;;;;;;;4.87;84.00;102492.34;2088198;28;36562;-75
2022/01/17 02:40:32;;;;;;;15.98;1.30;;;;;;;4.87;83.57;102503.84;2087567;28;44571;-75
2022/01/17 02:41:39;;;;;;;18.77;1.67;;;;;;;4.86;83.77;102494.06;2088074;28;44864;-75
2022/01/17 02:42:43;;;;;;;14.05;1.00;;;;;;;4.86;84.19;102494.06;2087688;28;45500;-75
2022/01/17 02:43:47;;;;;;;12.60;1.30;;;;;;;4.83;84.01;102488.69;2087688;28;45516;-75
2022/01/17 02:44:55;;;;;;;16.98;1.67;;;;;;;4.83;84.14;102488.69;2088401;28;33583;-75
2022/01/17 02:47:00;;;;;;;21.73;2.00;;;;;;;4.81;84.75;102506.34;2087889;28;45828;-75
2022/01/17 02:48:06;;;;;;;15.45;1.60;;;;;;;4.81;83.94;102502.78;2078857;28;44596;-75
2022/01/17 02:49:09;;;;;;;22.25;1.73;;;;;;;4.84;83.88;102509.06;2080003;28;44321;-75
2022/01/17 02:50:14;;;;;;;20.63;1.50;;;;;;;4.84;83.91;102513.47;2087461;28;46610;-75
2022/01/17 02:51:16;;;;;;;18.70;1.40;;;;;;;4.82;84.32;102512.53;2087743;28;43103;-75
2022/01/17 02:52:24;;;;;;;13.50;1.05;;;;;;;4.84;84.10;102513.47;2087695;28;44393;-75
2022/01/17 02:53:26;;;;;;;19.88;1.60;;;;;;;4.88;83.96;102516.25;2088085;28;39337;-75
2022/01/17 02:54:28;;;;;;;11.25;1.08;;;;;;;4.91;83.83;102526.94;2087551;28;44726;-75
2022/01/17 02:55:30;;;;;;;16.50;1.25;;;;;;;4.90;84.17;102529.53;2087865;28;45169;-75
2022/01/17 02:56:32;;;;;;;18.65;1.50;;;;;;;4.90;83.84;102519.84;2087950;28;42354;-75
2022/01/17 02:57:34;;;;;;;13.40;1.30;;;;;;;4.90;83.82;102530.47;2079516;28;34133;-75
2022/01/17 02:58:37;;;;;;;15.52;1.15;;;;;;;4.91;84.13;102526.94;2078859;28;44985;-75
2022/01/17 02:59:39;;;;;;;19.50;1.17;;;;;;;4.91;84.10;102536.66;2087914;28;42117;-75
2022/01/17 03:00:41;;;;;;;10.98;1.35;;;;;;;4.94;83.83;102532.34;2087502;28;44286;-75
2022/01/17 03:01:42;;;;;;;15.93;1.45;;;;;;;4.96;84.30;102537.69;2088177;28;46118;-75
2022/01/17 03:02:48;;;;;;;16.52;1.42;;;;;;;4.98;84.27;102535.97;2087582;28;45285;-75
2022/01/17 03:03:51;;;;;;;17.63;2.00;;;;;;;5.01;83.78;102538.72;2087691;28;42347;-75
2022/01/17 03:04:53;;;;;;;10.82;1.40;;;;;;;5.03;84.02;102521.06;2080331;28;42290;-75
2022/01/17 03:05:56;;;;;;;18.85;1.52;;;;;;;5.01;84.16;102521.84;2080767;28;44054;-74
2022/01/17 03:07:01;;;;;;;18.10;1.42;;;;;;;5.01;83.28;102521.84;2089507;28;45950;-74
2022/01/17 03:08:05;;;;;;;19.60;1.73;;;;;;;5.00;84.34;102520.97;2089394;28;45456;-75
2022/01/17 03:09:07;;;;;;;13.55;1.17;;;;;;;5.00;83.97;102514.78;2089223;28;46327;-75
2022/01/17 03:10:18;;;;;;;15.27;1.70;;;;;;;5.00;84.07;102512.13;2081156;28;23897;-74
2022/01/17 03:11:24;;;;;;;16.60;1.20;;;;;;;4.99;83.88;102521.84;2081735;28;44119;-75
2022/01/17 03:12:26;;;;;;;15.43;1.35;;;;;;;5.01;83.50;102524.50;2089178;28;45880;-74
2022/01/17 03:13:33;;;;;;;17.35;1.05;;;;;;;5.01;83.91;102517.47;2089402;28;45378;-75
2022/01/17 03:14:35;;;;;;;17.10;1.67;;;;;;;5.00;84.23;102514.78;2080332;28;45209;-75
2022/01/17 03:15:44;;;;;;;18.35;1.58;;;;;;;5.03;83.97;102509.56;2080954;28;28877;-75
2022/01/17 03:16:48;;;;;;;17.15;1.60;;;;;;;5.00;83.62;102514.78;2088208;28;44255;-75
2022/01/17 03:17:50;;;;;;;20.48;1.83;;;;;;;5.01;84.31;102516.56;2079874;28;45955;-74
2022/01/17 03:18:51;;;;;;;14.85;2.45;;;;;;;4.98;84.78;102507.66;2080086;28;46619;-75
2022/01/17 03:19:53;;;;;;;20.15;1.52;;;;;;;4.98;84.79;102517.38;2089082;28;45837;-74
2022/01/17 03:20:56;;;;;;;19.75;1.30;;;;;;;4.98;83.80;102520.94;2089607;28;35533;-75
2022/01/17 03:21:57;;;;;;;16.55;1.20;;;;;;;5.02;83.74;102527.22;2089061;28;45102;-75
2022/01/17 03:23:02;;;;;;;14.85;1.33;;;;;;;5.04;83.83;102521.94;2089008;28;46689;-74
2022/01/17 03:24:07;;;;;;;23.52;1.75;;;;;;;5.05;83.54;102532.59;2089140;28;42490;-74
2022/01/17 03:25:09;;;;;;;15.77;1.50;;;;;;;5.04;83.93;102528.16;2072409;28;44085;-75
2022/01/17 03:26:11;;;;;;;12.57;1.15;;;;;;;5.08;85.17;102532.69;2064874;28;43460;-74
2022/01/17 03:27:13;;;;;;;16.10;1.45;;;;;;;5.06;83.62;102534.41;2080813;28;45091;-74
2022/01/17 03:28:15;;;;;;;21.02;1.52;;;;;;;5.08;83.54;102530.03;2080109;28;44982;-74
2022/01/17 03:29:16;;;;;;;15.25;1.30;;;;;;;5.05;84.11;102531.72;2072258;28;41585;-74
2022/01/17 03:30:18;;;;;;;15.68;1.45;;;;;;;5.08;83.99;102539.75;2079583;28;45800;-74
2022/01/17 03:31:20;;;;;;;18.88;1.55;;;;;;;5.05;83.04;102540.56;2081081;28;44685;-75
2022/01/17 03:32:23;;;;;;;16.58;1.10;;;;;;;5.08;84.33;102529.13;2081602;28;20085;-75
2022/01/17 03:33:25;;;;;;;21.38;1.58;;;;;;;5.07;84.26;102527.34;2080277;28;46608;-75
2022/01/17 03:34:27;;;;;;;16.17;1.80;;;;;;;5.05;83.70;102531.72;2079550;28;43678;-74
2022/01/17 03:35:29;;;;;;;17.25;1.50;;;;;;;5.05;84.09;102514.03;2080975;28;44073;-74
2022/01/17 03:36:31;;;;;;;16.50;1.35;;;;;;;5.05;84.06;102529.06;2080629;28;44383;-75
2022/01/17 03:37:33;;;;;;;15.20;1.73;;;;;;;5.06;83.83;102531.75;2081117;28;32995;-74
2022/01/17 03:38:36;;;;;;;12.25;0.90;;;;;;;5.07;83.70;102528.22;2080723;28;44928;-74
2022/01/17 03:39:37;;;;;;;17.08;1.45;;;;;;;5.06;83.10;102522.88;2080248;28;43820;-75
2022/01/17 03:40:41;;;;;;;17.33;1.30;;;;;;;5.06;83.86;102522.88;2080958;28;35461;-74
2022/01/17 03:41:42;;;;;;;20.83;1.73;;;;;;;5.08;83.73;102526.47;2080825;28;46163;-75
2022/01/17 03:42:44;;;;;;;18.00;2.00;;;;;;;5.06;83.81;102538.81;2079840;28;43200;-74
2022/01/17 03:43:46;;;;;;;18.52;1.48;;;;;;;5.07;83.51;102528.22;2080101;28;43290;-74
2022/01/17 03:44:50;;;;;;;21.98;2.45;;;;;;;5.10;83.81;102538.94;2081600;28;20034;-74
2022/01/17 03:45:52;;;;;;;15.65;1.50;;;;;;;5.10;83.58;102520.34;2080591;28;44107;-74
2022/01/17 03:46:54;;;;;;;18.13;1.30;;;;;;;5.09;83.28;102525.63;2080750;28;45030;-74
2022/01/17 03:47:56;;;;;;;15.02;1.20;;;;;;;5.09;83.80;102517.66;2080621;28;42471;-74
2022/01/17 03:48:58;;;;;;;14.68;1.40;;;;;;;5.08;83.98;102531.78;2080607;28;44444;-74
2022/01/17 03:50:01;;;;;;;19.83;1.70;;;;;;;5.07;84.41;102522.03;2080973;28;45839;-74
2022/01/17 03:51:03;;;;;;;10.15;1.23;;;;;;;5.11;84.10;102530.09;2080842;28;44266;-74
2022/01/17 03:52:06;;;;;;;22.35;1.95;;;;;;;5.12;83.84;102531.91;2080102;28;46238;-74
2022/01/17 03:53:08;;;;;;;13.77;1.15;;;;;;;5.14;83.70;102527.53;2079733;28;42352;-75
2022/01/17 03:54:10;;;;;;;17.15;1.52;;;;;;;5.15;83.15;102531.06;2081032;28;38094;-74
2022/01/17 03:55:16;;;;;;;14.68;1.42;;;;;;;5.15;83.89;102528.41;2080364;28;43685;-75
2022/01/17 03:56:18;;;;;;;16.67;1.60;;;;;;;5.15;82.89;102521.38;2080465;28;44278;-74
2022/01/17 03:57:20;;;;;;;15.95;1.48;;;;;;;5.13;83.40;102522.19;2080549;28;46404;-74
2022/01/17 03:58:26;;;;;;;22.63;1.20;;;;;;;5.11;83.84;102519.47;2080459;28;43306;-75
2022/01/17 03:59:28;;;;;;;19.85;1.20;;;;;;;5.15;84.53;102509.81;2080195;28;45724;-75
2022/01/17 04:00:35;;;;;;;16.77;2.03;;;;;;;5.13;83.82;102498.28;2080859;28;45863;-75
2022/01/17 04:01:37;;;;;;;18.08;1.50;;;;;;;5.15;83.91;102496.56;2080275;28;44190;-75
2022/01/17 04:02:40;;;;;;;15.30;1.15;;;;;;;5.16;83.77;102511.63;2080920;28;40814;-75
2022/01/17 04:03:41;;;;;;;20.13;1.95;;;;;;;5.16;83.43;102514.28;2080788;28;42224;-75
2022/01/17 04:04:44;;;;;;;18.25;1.55;;;;;;;5.14;83.98;102505.41;2081904;28;20159;-75
2022/01/17 04:05:45;;;;;;;18.52;1.38;;;;;;;5.14;84.53;102516.03;2080277;28;44403;-75
2022/01/17 04:06:48;;;;;;;15.57;0.95;;;;;;;5.12;83.57;102509.78;2080495;28;43603;-75
2022/01/17 04:07:52;;;;;;;17.30;1.60;;;;;;;5.11;84.17;102510.63;2080937;28;32394;-75
2022/01/17 04:08:54;;;;;;;20.55;1.10;;;;;;;5.10;84.54;102507.09;2080950;28;45688;-75
2022/01/17 04:09:57;;;;;;;16.10;1.50;;;;;;;5.13;85.32;102524.81;2080212;28;44300;-75
2022/01/17 04:10:59;;;;;;;14.80;1.77;;;;;;;5.10;84.78;102501.78;2080847;28;45128;-75
2022/01/17 04:12:01;;;;;;;16.88;1.38;;;;;;;5.11;84.45;102502.66;2080462;28;42419;-75
2022/01/17 04:13:04;;;;;;;20.55;1.45;;;;;;;5.12;84.00;102504.47;2081087;28;36196;-74
2022/01/17 04:14:06;;;;;;;13.55;1.02;;;;;;;5.11;84.29;102513.28;2080399;28;44911;-75
2022/01/17 04:15:09;;;;;;;14.63;1.40;;;;;;;5.11;84.33;102507.97;2080718;28;44157;-75
2022/01/17 04:16:16;;;;;;;15.63;1.67;;;;;;;5.11;84.46;102503.53;2079107;28;46825;-75
2022/01/17 04:17:18;;;;;;;15.93;1.48;;;;;;;5.11;83.63;102514.16;2080319;28;42432;-74
2022/01/17 04:18:23;;;;;;;16.20;1.40;;;;;;;5.12;84.00;102504.47;2080399;28;45678;-75
2022/01/17 04:19:25;;;;;;;16.73;1.70;;;;;;;5.12;83.96;102509.78;2080802;28;45916;-75
2022/01/17 04:20:28;;;;;;;13.52;2.58;;;;;;;5.09;84.45;102518.53;2080307;28;45258;-74
2022/01/17 04:21:34;;;;;;;15.05;1.48;;;;;;;5.11;84.46;102502.66;2080583;28;46340;-75
2022/01/17 04:22:51;;;;;;;15.70;2.22;;;;;;;5.09;84.22;102510.56;2080394;28;43779;-74
2022/01/17 04:23:52;;;;;;;22.33;3.03;;;;;;;5.09;84.13;102496.41;2079593;28;44268;-74
2022/01/17 04:24:56;;;;;;;14.18;1.50;;;;;;;5.09;84.12;102492.00;2073807;28;45568;-75
2022/01/17 04:25:58;;;;;;;16.35;2.08;;;;;;;5.10;84.18;102507.09;2080852;28;33920;-74
2022/01/17 04:26:59;;;;;;;17.10;2.13;;;;;;;5.07;85.04;102493.72;2080440;28;43075;-74
2022/01/17 04:28:04;;;;;;;18.33;2.08;;;;;;;5.07;84.33;102485.75;2080131;28;43240;-75
2022/01/17 04:29:06;;;;;;;16.48;1.85;;;;;;;5.08;84.76;102490.22;2073096;28;20027;-76
2022/01/17 04:30:08;;;;;;;15.02;1.90;;;;;;;5.07;84.10;102479.56;2071666;28;46318;-75
2022/01/17 04:31:10;;;;;;;18.00;2.25;;;;;;;5.07;83.51;102480.44;2072080;28;43632;-74
2022/01/17 04:32:12;;;;;;;15.95;2.20;;;;;;;5.08;84.33;102490.22;2079713;28;45688;-75
2022/01/17 04:33:14;;;;;;;16.73;2.67;;;;;;;5.08;85.08;102486.66;2080740;28;43554;-75
2022/01/17 04:34:16;;;;;;;18.60;2.40;;;;;;;5.08;85.15;102471.63;2080659;28;33028;-75
2022/01/17 04:35:22;;;;;;;22.13;2.65;;;;;;;5.06;84.41;102480.41;2081048;28;20150;-75
2022/01/17 04:36:27;;;;;;;13.65;1.70;;;;;;;5.09;84.91;102480.50;2080130;28;44193;-75
2022/01/17 04:37:29;;;;;;;19.55;2.35;;;;;;;5.09;84.65;102480.50;2080006;28;44134;-75
2022/01/17 04:38:30;;;;;;;11.45;1.60;;;;;;;5.09;84.44;102484.03;2080415;28;45880;-75
2022/01/17 04:39:32;;;;;;;16.70;1.65;;;;;;;5.05;85.20;102476.84;2080052;28;45105;-75
2022/01/17 04:40:37;;;;;;;15.10;1.80;;;;;;;5.06;85.16;102483.06;2080655;28;46441;-75
2022/01/17 04:41:40;;;;;;;16.38;1.70;;;;;;;5.06;85.05;102485.72;2080770;28;40953;-75
2022/01/17 04:42:45;;;;;;;20.05;1.50;;;;;;;5.08;84.96;102481.34;2080599;28;35108;-74
2022/01/17 04:45:07;;;;;;;17.33;2.30;;;;;;;5.04;85.21;102493.63;2079599;28;42914;-75
2022/01/17 04:46:11;;;;;;;17.52;2.15;;;;;;;5.09;85.13;102485.78;2074238;28;45286;-74
2022/01/17 04:47:13;;;;;;;22.10;2.15;;;;;;;5.05;84.42;102486.59;2074081;28;44497;-74
2022/01/17 04:48:15;;;;;;;17.60;1.88;;;;;;;5.07;85.04;102468.94;2071792;28;44172;-75
2022/01/17 04:49:17;;;;;;;20.52;1.80;;;;;;;5.08;85.65;102470.72;2063558;28;46391;-75
2022/01/17 04:50:25;;;;;;;20.00;1.27;;;;;;;5.08;85.25;102470.72;2080170;28;42146;-75
2022/01/17 04:51:26;;;;;;;13.88;1.23;;;;;;;5.05;85.42;102479.50;2080042;28;45439;-75
2022/01/17 04:52:30;;;;;;;11.98;1.88;;;;;;;5.05;85.44;102475.97;2080375;28;44818;-75
2022/01/17 04:53:34;;;;;;;19.15;2.05;;;;;;;5.08;85.14;102476.03;2080058;28;43928;-75
2022/01/17 04:54:40;;;;;;;15.18;1.80;;;;;;;5.07;85.06;102474.25;2080707;28;34425;-74
2022/01/17 04:55:42;;;;;;;16.63;2.13;;;;;;;5.07;85.16;102469.81;2080020;28;43539;-75
2022/01/17 04:56:44;;;;;;;17.40;1.90;;;;;;;5.10;85.48;102463.72;2080503;28;44268;-74
2022/01/17 04:57:47;;;;;;;14.25;2.58;;;;;;;5.12;85.05;102459.34;2071470;28;33735;-74
2022/01/17 04:58:49;;;;;;;16.67;2.13;;;;;;;5.12;85.01;102472.59;2072209;28;45364;-74
2022/01/17 04:59:53;;;;;;;12.73;2.83;;;;;;;5.14;85.05;102460.25;2080818;28;20169;-74
2022/01/17 05:00:55;;;;;;;19.45;2.00;;;;;;;5.13;84.90;102463.75;2080639;28;42865;-75
2022/01/17 05:01:56;;;;;;;12.48;1.58;;;;;;;5.13;85.65;102445.19;2079106;28;43245;-75
2022/01/17 05:03:00;;;;;;;17.00;1.92;;;;;;;5.11;85.85;102453.09;2071921;28;36239;-75
2022/01/17 05:04:03;;;;;;;15.35;1.40;;;;;;;5.12;85.55;102456.69;2079365;28;43459;-75
2022/01/17 05:05:08;;;;;;;14.90;1.50;;;;;;;5.11;85.02;102454.88;2080341;28;46080;-75
2022/01/17 05:06:12;;;;;;;16.48;2.38;;;;;;;5.10;86.07;102469.91;2079575;28;42141;-74
2022/01/17 05:07:17;;;;;;;20.35;1.55;;;;;;;5.08;85.21;102470.72;2080520;28;20143;-74